sensor_id;sensor_type;location;lat;lon;timestamp;P1;durP1;ratioP1;P2;durP2;ratioP2
29362;SDS011;16349;53.672;10.014;2023-01-23T00:01:05;4.50;;;1.80;;
29362;SDS011;16349;53.672;10.014;2023-01-23T00:03:33;4.93;;;1.73;;
29362;SDS011;16349;53.672;10.014;2023-01-23T00:06:01;4.23;;;2.00;;
29362;SDS011;16349;53.672;10.014;2023-01-23T00:08:29;4.17;;;2.00;;
29362;SDS011;16349;53.672;10.014;2023-01-23T00:10:58;2.50;;;1.60;;
29362;SDS011;16349;53.672;10.014;2023-01-23T00:13:26;3.43;;;2.00;;
29362;SDS011;16349;53.672;10.014;2023-01-23T00:15:53;6.40;;;1.93;;
29362;SDS011;16349;53.672;10.014;2023-01-23T00:18:19;2.57;;;1.50;;
29362;SDS011;16349;53.672;10.014;2023-01-23T00:20:46;3.63;;;1.70;;
29362;SDS011;16349;53.672;10.014;2023-01-23T00:23:13;2.33;;;1.33;;
29362;SDS011;16349;53.672;10.014;2023-01-23T00:25:40;2.60;;;1.50;;
29362;SDS011;16349;53.672;10.014;2023-01-23T00:28:08;3.20;;;1.60;;
29362;SDS011;16349;53.672;10.014;2023-01-23T00:30:35;3.80;;;1.50;;
29362;SDS011;16349;53.672;10.014;2023-01-23T00:33:02;3.57;;;1.53;;
29362;SDS011;16349;53.672;10.014;2023-01-23T00:35:29;3.20;;;1.40;;
29362;SDS011;16349;53.672;10.014;2023-01-23T00:37:55;2.10;;;1.60;;
29362;SDS011;16349;53.672;10.014;2023-01-23T00:40:23;2.13;;;1.03;;
29362;SDS011;16349;53.672;10.014;2023-01-23T00:42:50;3.00;;;1.30;;
29362;SDS011;16349;53.672;10.014;2023-01-23T00:45:19;1.67;;;1.47;;
29362;SDS011;16349;53.672;10.014;2023-01-23T00:47:46;2.20;;;1.47;;
29362;SDS011;16349;53.672;10.014;2023-01-23T00:50:13;1.33;;;1.20;;
29362;SDS011;16349;53.672;10.014;2023-01-23T00:52:40;2.43;;;1.33;;
29362;SDS011;16349;53.672;10.014;2023-01-23T00:55:09;2.10;;;1.27;;
29362;SDS011;16349;53.672;10.014;2023-01-23T00:57:35;1.63;;;1.00;;
29362;SDS011;16349;53.672;10.014;2023-01-23T01:00:02;1.70;;;1.07;;
29362;SDS011;16349;53.672;10.014;2023-01-23T01:02:31;2.57;;;1.10;;
29362;SDS011;16349;53.672;10.014;2023-01-23T01:04:58;1.37;;;0.87;;
29362;SDS011;16349;53.672;10.014;2023-01-23T01:07:25;1.17;;;0.97;;
29362;SDS011;16349;53.672;10.014;2023-01-23T01:09:52;1.00;;;0.90;;
29362;SDS011;16349;53.672;10.014;2023-01-23T01:12:19;2.87;;;1.00;;
29362;SDS011;16349;53.672;10.014;2023-01-23T01:14:46;1.10;;;0.73;;
29362;SDS011;16349;53.672;10.014;2023-01-23T01:17:13;2.67;;;0.90;;
29362;SDS011;16349;53.672;10.014;2023-01-23T01:19:41;1.03;;;1.00;;
29362;SDS011;16349;53.672;10.014;2023-01-23T01:22:08;2.07;;;1.40;;
29362;SDS011;16349;53.672;10.014;2023-01-23T01:24:35;1.30;;;1.20;;
29362;SDS011;16349;53.672;10.014;2023-01-23T01:27:02;5.13;;;1.40;;
29362;SDS011;16349;53.672;10.014;2023-01-23T01:29:29;2.73;;;1.60;;
29362;SDS011;16349;53.672;10.014;2023-01-23T01:31:56;3.13;;;2.03;;
29362;SDS011;16349;53.672;10.014;2023-01-23T01:34:22;4.03;;;1.73;;
29362;SDS011;16349;53.672;10.014;2023-01-23T01:36:50;4.30;;;1.70;;
29362;SDS011;16349;53.672;10.014;2023-01-23T01:39:18;2.83;;;1.80;;
29362;SDS011;16349;53.672;10.014;2023-01-23T01:41:45;3.40;;;2.07;;
29362;SDS011;16349;53.672;10.014;2023-01-23T01:44:13;4.07;;;2.23;;
29362;SDS011;16349;53.672;10.014;2023-01-23T01:46:44;3.27;;;1.83;;
29362;SDS011;16349;53.672;10.014;2023-01-23T01:49:11;4.50;;;2.30;;
29362;SDS011;16349;53.672;10.014;2023-01-23T01:51:43;3.20;;;1.97;;
29362;SDS011;16349;53.672;10.014;2023-01-23T01:54:16;2.37;;;2.17;;
29362;SDS011;16349;53.672;10.014;2023-01-23T01:56:50;3.00;;;2.70;;
29362;SDS011;16349;53.672;10.014;2023-01-23T01:59:22;2.87;;;2.40;;
29362;SDS011;16349;53.672;10.014;2023-01-23T02:01:52;5.23;;;2.60;;
29362;SDS011;16349;53.672;10.014;2023-01-23T02:04:23;3.67;;;2.80;;
29362;SDS011;16349;53.672;10.014;2023-01-23T02:06:50;3.30;;;3.00;;
29362;SDS011;16349;53.672;10.014;2023-01-23T02:09:21;3.77;;;2.83;;
29362;SDS011;16349;53.672;10.014;2023-01-23T02:11:51;3.57;;;3.27;;
29362;SDS011;16349;53.672;10.014;2023-01-23T02:14:18;4.60;;;2.77;;
29362;SDS011;16349;53.672;10.014;2023-01-23T02:16:48;3.93;;;3.00;;
29362;SDS011;16349;53.672;10.014;2023-01-23T02:19:19;3.57;;;3.23;;
29362;SDS011;16349;53.672;10.014;2023-01-23T02:21:56;4.20;;;3.27;;
29362;SDS011;16349;53.672;10.014;2023-01-23T02:24:34;4.07;;;3.67;;
29362;SDS011;16349;53.672;10.014;2023-01-23T02:27:06;3.40;;;3.10;;
29362;SDS011;16349;53.672;10.014;2023-01-23T02:29:40;4.40;;;3.80;;
29362;SDS011;16349;53.672;10.014;2023-01-23T02:32:08;3.63;;;3.33;;
29362;SDS011;16349;53.672;10.014;2023-01-23T02:34:36;4.00;;;3.20;;
29362;SDS011;16349;53.672;10.014;2023-01-23T02:37:03;4.90;;;3.67;;
29362;SDS011;16349;53.672;10.014;2023-01-23T02:39:32;6.60;;;3.53;;
29362;SDS011;16349;53.672;10.014;2023-01-23T02:41:59;4.10;;;3.70;;
29362;SDS011;16349;53.672;10.014;2023-01-23T02:44:47;3.17;;;2.90;;
29362;SDS011;16349;53.672;10.014;2023-01-23T02:47:18;5.03;;;2.83;;
29362;SDS011;16349;53.672;10.014;2023-01-23T02:49:45;6.97;;;3.20;;
29362;SDS011;16349;53.672;10.014;2023-01-23T02:52:12;3.40;;;3.10;;
29362;SDS011;16349;53.672;10.014;2023-01-23T02:54:39;3.17;;;2.83;;
29362;SDS011;16349;53.672;10.014;2023-01-23T02:57:06;3.97;;;3.60;;
29362;SDS011;16349;53.672;10.014;2023-01-23T02:59:33;3.57;;;3.27;;
29362;SDS011;16349;53.672;10.014;2023-01-23T03:02:20;3.70;;;3.33;;
29362;SDS011;16349;53.672;10.014;2023-01-23T03:04:47;3.60;;;3.30;;
29362;SDS011;16349;53.672;10.014;2023-01-23T03:07:14;4.17;;;3.07;;
29362;SDS011;16349;53.672;10.014;2023-01-23T03:09:41;4.87;;;3.63;;
29362;SDS011;16349;53.672;10.014;2023-01-23T03:12:10;4.07;;;3.10;;
29362;SDS011;16349;53.672;10.014;2023-01-23T03:14:37;5.30;;;3.40;;
29362;SDS011;16349;53.672;10.014;2023-01-23T03:17:04;5.20;;;3.40;;
29362;SDS011;16349;53.672;10.014;2023-01-23T03:19:35;3.80;;;3.50;;
29362;SDS011;16349;53.672;10.014;2023-01-23T03:22:03;4.50;;;3.93;;
29362;SDS011;16349;53.672;10.014;2023-01-23T03:24:30;5.20;;;3.70;;
29362;SDS011;16349;53.672;10.014;2023-01-23T03:27:00;3.37;;;3.07;;
29362;SDS011;16349;53.672;10.014;2023-01-23T03:29:33;5.20;;;3.20;;
29362;SDS011;16349;53.672;10.014;2023-01-23T03:32:17;4.40;;;2.97;;
29362;SDS011;16349;53.672;10.014;2023-01-23T03:34:47;3.50;;;3.10;;
29362;SDS011;16349;53.672;10.014;2023-01-23T03:37:13;3.33;;;3.03;;
29362;SDS011;16349;53.672;10.014;2023-01-23T03:39:43;3.60;;;3.00;;
29362;SDS011;16349;53.672;10.014;2023-01-23T03:42:31;3.83;;;3.47;;
29362;SDS011;16349;53.672;10.014;2023-01-23T03:45:01;3.73;;;3.10;;
29362;SDS011;16349;53.672;10.014;2023-01-23T03:47:31;5.13;;;3.03;;
29362;SDS011;16349;53.672;10.014;2023-01-23T03:49:59;3.70;;;2.87;;
29362;SDS011;16349;53.672;10.014;2023-01-23T03:52:31;2.67;;;2.47;;
29362;SDS011;16349;53.672;10.014;2023-01-23T03:54:58;4.57;;;2.73;;
29362;SDS011;16349;53.672;10.014;2023-01-23T03:57:25;3.23;;;2.77;;
29362;SDS011;16349;53.672;10.014;2023-01-23T04:00:22;4.20;;;2.50;;
29362;SDS011;16349;53.672;10.014;2023-01-23T04:02:56;3.37;;;2.70;;
29362;SDS011;16349;53.672;10.014;2023-01-23T04:05:25;3.40;;;2.87;;
29362;SDS011;16349;53.672;10.014;2023-01-23T04:07:51;2.40;;;2.20;;
29362;SDS011;16349;53.672;10.014;2023-01-23T04:10:19;2.57;;;2.37;;
29362;SDS011;16349;53.672;10.014;2023-01-23T04:12:51;2.60;;;2.40;;
29362;SDS011;16349;53.672;10.014;2023-01-23T04:15:18;2.70;;;2.50;;
29362;SDS011;16349;53.672;10.014;2023-01-23T04:17:45;2.30;;;2.10;;
29362;SDS011;16349;53.672;10.014;2023-01-23T04:20:13;3.10;;;2.77;;
29362;SDS011;16349;53.672;10.014;2023-01-23T04:23:03;4.77;;;3.60;;
29362;SDS011;16349;53.672;10.014;2023-01-23T04:25:31;3.60;;;2.73;;
29362;SDS011;16349;53.672;10.014;2023-01-23T04:27:57;3.63;;;2.97;;
29362;SDS011;16349;53.672;10.014;2023-01-23T04:30:25;4.03;;;3.03;;
29362;SDS011;16349;53.672;10.014;2023-01-23T04:32:53;3.70;;;3.37;;
29362;SDS011;16349;53.672;10.014;2023-01-23T04:35:19;3.37;;;3.07;;
29362;SDS011;16349;53.672;10.014;2023-01-23T04:37:46;4.70;;;3.70;;
29362;SDS011;16349;53.672;10.014;2023-01-23T04:40:16;4.30;;;3.20;;
29362;SDS011;16349;53.672;10.014;2023-01-23T04:42:50;4.37;;;3.50;;
29362;SDS011;16349;53.672;10.014;2023-01-23T04:45:31;4.03;;;3.40;;
29362;SDS011;16349;53.672;10.014;2023-01-23T04:48:17;4.33;;;3.90;;
29362;SDS011;16349;53.672;10.014;2023-01-23T04:50:44;3.90;;;3.60;;
29362;SDS011;16349;53.672;10.014;2023-01-23T04:53:11;4.87;;;3.57;;
29362;SDS011;16349;53.672;10.014;2023-01-23T04:55:40;6.63;;;4.20;;
29362;SDS011;16349;53.672;10.014;2023-01-23T04:58:13;4.43;;;4.03;;
29362;SDS011;16349;53.672;10.014;2023-01-23T05:00:40;4.73;;;3.73;;
29362;SDS011;16349;53.672;10.014;2023-01-23T05:03:07;5.43;;;4.30;;
29362;SDS011;16349;53.672;10.014;2023-01-23T05:05:33;4.40;;;4.00;;
29362;SDS011;16349;53.672;10.014;2023-01-23T05:08:00;5.70;;;4.47;;
29362;SDS011;16349;53.672;10.014;2023-01-23T05:10:28;4.70;;;4.20;;
29362;SDS011;16349;53.672;10.014;2023-01-23T05:13:02;5.13;;;4.47;;
29362;SDS011;16349;53.672;10.014;2023-01-23T05:15:29;8.23;;;4.40;;
29362;SDS011;16349;53.672;10.014;2023-01-23T05:17:56;4.70;;;4.20;;
29362;SDS011;16349;53.672;10.014;2023-01-23T05:20:23;6.00;;;4.57;;
29362;SDS011;16349;53.672;10.014;2023-01-23T05:23:11;5.87;;;4.50;;
29362;SDS011;16349;53.672;10.014;2023-01-23T05:26:00;6.37;;;4.40;;
29362;SDS011;16349;53.672;10.014;2023-01-23T05:28:30;5.47;;;4.23;;
29362;SDS011;16349;53.672;10.014;2023-01-23T05:30:57;5.33;;;4.33;;
29362;SDS011;16349;53.672;10.014;2023-01-23T05:33:36;5.30;;;4.80;;
29362;SDS011;16349;53.672;10.014;2023-01-23T05:36:05;7.93;;;4.47;;
29362;SDS011;16349;53.672;10.014;2023-01-23T05:38:32;5.73;;;4.50;;
29362;SDS011;16349;53.672;10.014;2023-01-23T05:40:59;5.87;;;4.70;;
29362;SDS011;16349;53.672;10.014;2023-01-23T05:43:47;6.17;;;4.60;;
29362;SDS011;16349;53.672;10.014;2023-01-23T05:46:26;9.10;;;4.90;;
29362;SDS011;16349;53.672;10.014;2023-01-23T05:48:55;5.73;;;4.77;;
29362;SDS011;16349;53.672;10.014;2023-01-23T05:51:21;7.57;;;4.87;;
29362;SDS011;16349;53.672;10.014;2023-01-23T05:53:56;5.90;;;4.67;;
29362;SDS011;16349;53.672;10.014;2023-01-23T05:56:24;6.63;;;5.33;;
29362;SDS011;16349;53.672;10.014;2023-01-23T05:59:10;6.90;;;5.90;;
29362;SDS011;16349;53.672;10.014;2023-01-23T06:01:44;5.67;;;5.07;;
29362;SDS011;16349;53.672;10.014;2023-01-23T06:04:30;6.87;;;5.20;;
29362;SDS011;16349;53.672;10.014;2023-01-23T06:07:20;6.03;;;5.13;;
29362;SDS011;16349;53.672;10.014;2023-01-23T06:09:50;8.80;;;5.87;;
29362;SDS011;16349;53.672;10.014;2023-01-23T06:12:18;10.10;;;5.53;;
29362;SDS011;16349;53.672;10.014;2023-01-23T06:14:47;8.37;;;5.27;;
29362;SDS011;16349;53.672;10.014;2023-01-23T06:17:14;6.13;;;5.53;;
29362;SDS011;16349;53.672;10.014;2023-01-23T06:19:41;6.70;;;5.20;;
29362;SDS011;16349;53.672;10.014;2023-01-23T06:22:09;6.00;;;5.40;;
29362;SDS011;16349;53.672;10.014;2023-01-23T06:24:54;6.90;;;5.13;;
29362;SDS011;16349;53.672;10.014;2023-01-23T06:27:21;7.27;;;5.47;;
29362;SDS011;16349;53.672;10.014;2023-01-23T06:29:49;13.23;;;5.67;;
29362;SDS011;16349;53.672;10.014;2023-01-23T06:32:16;5.80;;;4.93;;
29362;SDS011;16349;53.672;10.014;2023-01-23T06:34:43;6.20;;;5.50;;
29362;SDS011;16349;53.672;10.014;2023-01-23T06:37:10;7.37;;;5.57;;
29362;SDS011;16349;53.672;10.014;2023-01-23T06:39:39;5.77;;;5.17;;
29362;SDS011;16349;53.672;10.014;2023-01-23T06:42:07;8.90;;;6.13;;
29362;SDS011;16349;53.672;10.014;2023-01-23T06:44:36;7.80;;;5.57;;
29362;SDS011;16349;53.672;10.014;2023-01-23T06:47:05;5.90;;;5.07;;
29362;SDS011;16349;53.672;10.014;2023-01-23T06:49:32;7.57;;;5.77;;
29362;SDS011;16349;53.672;10.014;2023-01-23T06:51:59;8.80;;;5.87;;
29362;SDS011;16349;53.672;10.014;2023-01-23T06:54:29;8.97;;;6.70;;
29362;SDS011;16349;53.672;10.014;2023-01-23T06:56:59;9.60;;;6.13;;
29362;SDS011;16349;53.672;10.014;2023-01-23T06:59:27;9.67;;;6.03;;
29362;SDS011;16349;53.672;10.014;2023-01-23T07:01:55;8.90;;;6.30;;
29362;SDS011;16349;53.672;10.014;2023-01-23T07:04:32;6.13;;;5.47;;
29362;SDS011;16349;53.672;10.014;2023-01-23T07:06:59;6.70;;;5.80;;
29362;SDS011;16349;53.672;10.014;2023-01-23T07:09:27;8.00;;;5.83;;
29362;SDS011;16349;53.672;10.014;2023-01-23T07:12:03;9.93;;;5.77;;
29362;SDS011;16349;53.672;10.014;2023-01-23T07:14:31;8.40;;;5.63;;
29362;SDS011;16349;53.672;10.014;2023-01-23T07:16:58;6.40;;;5.13;;
29362;SDS011;16349;53.672;10.014;2023-01-23T07:19:25;8.63;;;6.43;;
29362;SDS011;16349;53.672;10.014;2023-01-23T07:21:55;8.57;;;5.70;;
29362;SDS011;16349;53.672;10.014;2023-01-23T07:24:22;7.87;;;6.20;;
29362;SDS011;16349;53.672;10.014;2023-01-23T07:26:48;9.67;;;6.80;;
29362;SDS011;16349;53.672;10.014;2023-01-23T07:29:15;10.13;;;6.50;;
29362;SDS011;16349;53.672;10.014;2023-01-23T07:31:42;7.00;;;5.47;;
29362;SDS011;16349;53.672;10.014;2023-01-23T07:34:09;8.77;;;6.13;;
29362;SDS011;16349;53.672;10.014;2023-01-23T07:36:36;9.50;;;6.87;;
29362;SDS011;16349;53.672;10.014;2023-01-23T07:39:04;8.43;;;6.43;;
29362;SDS011;16349;53.672;10.014;2023-01-23T07:41:31;11.07;;;6.43;;
29362;SDS011;16349;53.672;10.014;2023-01-23T07:44:01;8.37;;;5.77;;
29362;SDS011;16349;53.672;10.014;2023-01-23T07:46:28;8.83;;;5.93;;
29362;SDS011;16349;53.672;10.014;2023-01-23T07:48:55;6.67;;;5.90;;
29362;SDS011;16349;53.672;10.014;2023-01-23T07:51:22;6.67;;;5.87;;
29362;SDS011;16349;53.672;10.014;2023-01-23T07:53:48;9.33;;;6.50;;
29362;SDS011;16349;53.672;10.014;2023-01-23T07:56:16;7.50;;;5.77;;
29362;SDS011;16349;53.672;10.014;2023-01-23T07:58:47;9.30;;;6.43;;
29362;SDS011;16349;53.672;10.014;2023-01-23T08:01:14;6.17;;;5.33;;
29362;SDS011;16349;53.672;10.014;2023-01-23T08:03:43;9.20;;;6.30;;
29362;SDS011;16349;53.672;10.014;2023-01-23T08:06:10;8.67;;;6.60;;
29362;SDS011;16349;53.672;10.014;2023-01-23T08:08:36;8.13;;;6.00;;
29362;SDS011;16349;53.672;10.014;2023-01-23T08:11:04;10.23;;;6.20;;
29362;SDS011;16349;53.672;10.014;2023-01-23T08:13:33;9.13;;;6.30;;
29362;SDS011;16349;53.672;10.014;2023-01-23T08:15:59;8.83;;;6.87;;
29362;SDS011;16349;53.672;10.014;2023-01-23T08:18:27;10.67;;;7.30;;
29362;SDS011;16349;53.672;10.014;2023-01-23T08:20:55;8.13;;;6.77;;
29362;SDS011;16349;53.672;10.014;2023-01-23T08:23:23;8.80;;;7.07;;
29362;SDS011;16349;53.672;10.014;2023-01-23T08:25:51;9.70;;;7.30;;
29362;SDS011;16349;53.672;10.014;2023-01-23T08:28:18;9.00;;;6.70;;
29362;SDS011;16349;53.672;10.014;2023-01-23T08:30:46;9.60;;;6.57;;
29362;SDS011;16349;53.672;10.014;2023-01-23T08:33:13;12.47;;;6.87;;
29362;SDS011;16349;53.672;10.014;2023-01-23T08:35:46;12.50;;;7.17;;
29362;SDS011;16349;53.672;10.014;2023-01-23T08:38:14;8.00;;;6.20;;
29362;SDS011;16349;53.672;10.014;2023-01-23T08:40:42;8.00;;;6.90;;
29362;SDS011;16349;53.672;10.014;2023-01-23T08:43:09;7.07;;;6.27;;
29362;SDS011;16349;53.672;10.014;2023-01-23T08:45:38;11.03;;;6.83;;
29362;SDS011;16349;53.672;10.014;2023-01-23T08:48:06;9.00;;;6.00;;
29362;SDS011;16349;53.672;10.014;2023-01-23T08:50:33;9.53;;;6.80;;
29362;SDS011;16349;53.672;10.014;2023-01-23T08:53:00;9.37;;;7.00;;
29362;SDS011;16349;53.672;10.014;2023-01-23T08:55:27;9.73;;;5.80;;
29362;SDS011;16349;53.672;10.014;2023-01-23T08:57:56;10.23;;;6.43;;
29362;SDS011;16349;53.672;10.014;2023-01-23T09:00:24;12.23;;;7.17;;
29362;SDS011;16349;53.672;10.014;2023-01-23T09:02:51;9.13;;;6.93;;
29362;SDS011;16349;53.672;10.014;2023-01-23T09:05:19;10.17;;;7.13;;
29362;SDS011;16349;53.672;10.014;2023-01-23T09:07:46;7.50;;;6.37;;
29362;SDS011;16349;53.672;10.014;2023-01-23T09:10:14;9.13;;;6.53;;
29362;SDS011;16349;53.672;10.014;2023-01-23T09:12:41;9.03;;;7.07;;
29362;SDS011;16349;53.672;10.014;2023-01-23T09:15:08;9.27;;;7.00;;
29362;SDS011;16349;53.672;10.014;2023-01-23T09:17:35;8.97;;;6.23;;
29362;SDS011;16349;53.672;10.014;2023-01-23T09:20:02;8.20;;;6.33;;
29362;SDS011;16349;53.672;10.014;2023-01-23T09:22:32;9.63;;;5.80;;
29362;SDS011;16349;53.672;10.014;2023-01-23T09:24:59;8.00;;;6.67;;
29362;SDS011;16349;53.672;10.014;2023-01-23T09:27:26;10.13;;;6.37;;
29362;SDS011;16349;53.672;10.014;2023-01-23T09:29:53;9.77;;;5.93;;
29362;SDS011;16349;53.672;10.014;2023-01-23T09:32:20;11.13;;;7.10;;
29362;SDS011;16349;53.672;10.014;2023-01-23T09:34:47;10.67;;;6.90;;
29362;SDS011;16349;53.672;10.014;2023-01-23T09:37:14;9.67;;;7.07;;
29362;SDS011;16349;53.672;10.014;2023-01-23T09:39:42;9.73;;;6.60;;
29362;SDS011;16349;53.672;10.014;2023-01-23T09:42:11;10.53;;;6.87;;
29362;SDS011;16349;53.672;10.014;2023-01-23T09:44:43;8.67;;;6.63;;
29362;SDS011;16349;53.672;10.014;2023-01-23T09:47:14;12.53;;;7.13;;
29362;SDS011;16349;53.672;10.014;2023-01-23T09:49:47;10.00;;;6.70;;
29362;SDS011;16349;53.672;10.014;2023-01-23T09:52:20;10.77;;;5.93;;
29362;SDS011;16349;53.672;10.014;2023-01-23T09:54:52;9.73;;;7.03;;
29362;SDS011;16349;53.672;10.014;2023-01-23T09:57:24;8.03;;;6.43;;
29362;SDS011;16349;53.672;10.014;2023-01-23T09:59:58;9.90;;;6.20;;
29362;SDS011;16349;53.672;10.014;2023-01-23T10:02:31;9.23;;;7.03;;
29362;SDS011;16349;53.672;10.014;2023-01-23T10:04:59;9.80;;;7.03;;
29362;SDS011;16349;53.672;10.014;2023-01-23T10:07:31;9.63;;;6.60;;
29362;SDS011;16349;53.672;10.014;2023-01-23T10:10:16;9.33;;;6.33;;
29362;SDS011;16349;53.672;10.014;2023-01-23T10:13:03;12.03;;;6.50;;
29362;SDS011;16349;53.672;10.014;2023-01-23T10:15:40;11.03;;;6.27;;
29362;SDS011;16349;53.672;10.014;2023-01-23T10:18:49;8.10;;;6.13;;
29362;SDS011;16349;53.672;10.014;2023-01-23T10:21:24;7.93;;;6.00;;
29362;SDS011;16349;53.672;10.014;2023-01-23T10:24:20;8.63;;;5.77;;
29362;SDS011;16349;53.672;10.014;2023-01-23T10:26:59;9.97;;;5.97;;
29362;SDS011;16349;53.672;10.014;2023-01-23T10:29:37;10.57;;;6.27;;
29362;SDS011;16349;53.672;10.014;2023-01-23T10:32:12;8.93;;;6.70;;
29362;SDS011;16349;53.672;10.014;2023-01-23T10:34:50;8.23;;;6.60;;
29362;SDS011;16349;53.672;10.014;2023-01-23T10:37:23;9.67;;;6.80;;
29362;SDS011;16349;53.672;10.014;2023-01-23T10:40:04;9.93;;;6.37;;
29362;SDS011;16349;53.672;10.014;2023-01-23T10:42:37;9.70;;;6.93;;
29362;SDS011;16349;53.672;10.014;2023-01-23T10:45:05;12.40;;;7.63;;
29362;SDS011;16349;53.672;10.014;2023-01-23T10:47:41;10.10;;;6.13;;
29362;SDS011;16349;53.672;10.014;2023-01-23T10:50:10;11.43;;;7.53;;
29362;SDS011;16349;53.672;10.014;2023-01-23T10:52:39;9.33;;;7.40;;
29362;SDS011;16349;53.672;10.014;2023-01-23T10:57:55;9.73;;;6.93;;
29362;SDS011;16349;53.672;10.014;2023-01-23T11:00:28;9.13;;;6.20;;
29362;SDS011;16349;53.672;10.014;2023-01-23T11:06:00;13.30;;;7.30;;
29362;SDS011;16349;53.672;10.014;2023-01-23T11:08:29;10.97;;;7.30;;
29362;SDS011;16349;53.672;10.014;2023-01-23T11:11:16;12.00;;;7.10;;
29362;SDS011;16349;53.672;10.014;2023-01-23T11:13:48;10.10;;;7.63;;
29362;SDS011;16349;53.672;10.014;2023-01-23T11:16:17;12.10;;;6.90;;
29362;SDS011;16349;53.672;10.014;2023-01-23T11:18:48;13.17;;;7.60;;
29362;SDS011;16349;53.672;10.014;2023-01-23T11:21:19;12.57;;;6.70;;
29362;SDS011;16349;53.672;10.014;2023-01-23T11:23:47;11.10;;;7.27;;
29362;SDS011;16349;53.672;10.014;2023-01-23T11:26:29;8.33;;;6.77;;
29362;SDS011;16349;53.672;10.014;2023-01-23T11:28:59;8.90;;;7.00;;
29362;SDS011;16349;53.672;10.014;2023-01-23T11:31:26;11.70;;;7.20;;
29362;SDS011;16349;53.672;10.014;2023-01-23T11:33:56;13.33;;;7.10;;
29362;SDS011;16349;53.672;10.014;2023-01-23T11:36:47;11.17;;;6.90;;
29362;SDS011;16349;53.672;10.014;2023-01-23T11:39:21;11.53;;;7.13;;
29362;SDS011;16349;53.672;10.014;2023-01-23T11:42:01;10.73;;;6.93;;
29362;SDS011;16349;53.672;10.014;2023-01-23T11:44:30;11.77;;;7.30;;
29362;SDS011;16349;53.672;10.014;2023-01-23T11:47:01;8.60;;;6.37;;
29362;SDS011;16349;53.672;10.014;2023-01-23T11:52:40;10.43;;;6.90;;
29362;SDS011;16349;53.672;10.014;2023-01-23T11:58:26;11.43;;;7.43;;
29362;SDS011;16349;53.672;10.014;2023-01-23T12:01:08;8.87;;;6.83;;
29362;SDS011;16349;53.672;10.014;2023-01-23T12:04:08;8.00;;;6.30;;
29362;SDS011;16349;53.672;10.014;2023-01-23T12:07:04;11.70;;;6.47;;
29362;SDS011;16349;53.672;10.014;2023-01-23T12:09:43;9.37;;;6.10;;
29362;SDS011;16349;53.672;10.014;2023-01-23T12:12:19;13.23;;;7.77;;
29362;SDS011;16349;53.672;10.014;2023-01-23T12:14:55;13.67;;;7.43;;
29362;SDS011;16349;53.672;10.014;2023-01-23T12:17:33;10.30;;;6.73;;
29362;SDS011;16349;53.672;10.014;2023-01-23T12:20:16;10.97;;;7.20;;
29362;SDS011;16349;53.672;10.014;2023-01-23T12:22:54;10.20;;;6.83;;
29362;SDS011;16349;53.672;10.014;2023-01-23T12:25:33;9.00;;;7.20;;
29362;SDS011;16349;53.672;10.014;2023-01-23T12:28:03;11.07;;;7.37;;
29362;SDS011;16349;53.672;10.014;2023-01-23T12:30:45;14.40;;;8.13;;
29362;SDS011;16349;53.672;10.014;2023-01-23T12:33:36;13.20;;;7.63;;
29362;SDS011;16349;53.672;10.014;2023-01-23T12:36:23;12.23;;;7.07;;
29362;SDS011;16349;53.672;10.014;2023-01-23T12:39:03;11.40;;;7.40;;
29362;SDS011;16349;53.672;10.014;2023-01-23T12:41:40;12.77;;;7.70;;
29362;SDS011;16349;53.672;10.014;2023-01-23T12:44:11;11.20;;;7.43;;
29362;SDS011;16349;53.672;10.014;2023-01-23T12:46:42;10.90;;;6.93;;
29362;SDS011;16349;53.672;10.014;2023-01-23T12:49:18;9.10;;;7.03;;
29362;SDS011;16349;53.672;10.014;2023-01-23T12:51:51;11.20;;;7.53;;
29362;SDS011;16349;53.672;10.014;2023-01-23T12:54:23;11.93;;;7.33;;
29362;SDS011;16349;53.672;10.014;2023-01-23T12:56:58;10.87;;;7.83;;
29362;SDS011;16349;53.672;10.014;2023-01-23T12:59:28;9.87;;;6.63;;
29362;SDS011;16349;53.672;10.014;2023-01-23T13:02:09;9.53;;;7.00;;
29362;SDS011;16349;53.672;10.014;2023-01-23T13:04:49;12.30;;;7.57;;
29362;SDS011;16349;53.672;10.014;2023-01-23T13:07:34;10.43;;;6.77;;
29362;SDS011;16349;53.672;10.014;2023-01-23T13:10:14;8.93;;;6.80;;
29362;SDS011;16349;53.672;10.014;2023-01-23T13:12:50;13.67;;;8.00;;
29362;SDS011;16349;53.672;10.014;2023-01-23T13:15:21;12.20;;;7.70;;
29362;SDS011;16349;53.672;10.014;2023-01-23T13:17:57;11.63;;;6.83;;
29362;SDS011;16349;53.672;10.014;2023-01-23T13:20:52;10.03;;;6.70;;
29362;SDS011;16349;53.672;10.014;2023-01-23T13:23:39;11.27;;;7.00;;
29362;SDS011;16349;53.672;10.014;2023-01-23T13:29:00;8.80;;;6.93;;
29362;SDS011;16349;53.672;10.014;2023-01-23T13:31:36;10.20;;;7.50;;
29362;SDS011;16349;53.672;10.014;2023-01-23T13:34:34;10.13;;;6.90;;
29362;SDS011;16349;53.672;10.014;2023-01-23T13:40:20;10.03;;;6.93;;
29362;SDS011;16349;53.672;10.014;2023-01-23T13:42:48;11.20;;;7.17;;
29362;SDS011;16349;53.672;10.014;2023-01-23T13:45:22;12.37;;;7.77;;
29362;SDS011;16349;53.672;10.014;2023-01-23T13:51:18;11.03;;;6.47;;
29362;SDS011;16349;53.672;10.014;2023-01-23T13:53:47;11.53;;;8.53;;
29362;SDS011;16349;53.672;10.014;2023-01-23T13:56:35;13.17;;;7.83;;
29362;SDS011;16349;53.672;10.014;2023-01-23T13:59:14;12.73;;;7.83;;
29362;SDS011;16349;53.672;10.014;2023-01-23T14:01:51;12.93;;;8.20;;
29362;SDS011;16349;53.672;10.014;2023-01-23T14:04:50;16.13;;;8.53;;
29362;SDS011;16349;53.672;10.014;2023-01-23T14:07:38;13.90;;;8.47;;
29362;SDS011;16349;53.672;10.014;2023-01-23T14:10:14;10.43;;;7.67;;
29362;SDS011;16349;53.672;10.014;2023-01-23T14:13:04;10.13;;;8.07;;
29362;SDS011;16349;53.672;10.014;2023-01-23T14:15:33;11.17;;;7.53;;
29362;SDS011;16349;53.672;10.014;2023-01-23T14:18:28;12.33;;;7.47;;
29362;SDS011;16349;53.672;10.014;2023-01-23T14:21:00;12.77;;;8.27;;
29362;SDS011;16349;53.672;10.014;2023-01-23T14:23:29;11.83;;;8.50;;
29362;SDS011;16349;53.672;10.014;2023-01-23T14:26:00;11.07;;;8.03;;
29362;SDS011;16349;53.672;10.014;2023-01-23T14:28:28;15.73;;;8.70;;
29362;SDS011;16349;53.672;10.014;2023-01-23T14:30:56;14.47;;;8.80;;
29362;SDS011;16349;53.672;10.014;2023-01-23T14:33:27;12.47;;;8.67;;
29362;SDS011;16349;53.672;10.014;2023-01-23T14:35:54;11.30;;;8.17;;
29362;SDS011;16349;53.672;10.014;2023-01-23T14:38:40;12.67;;;8.70;;
29362;SDS011;16349;53.672;10.014;2023-01-23T14:41:10;12.03;;;8.87;;
29362;SDS011;16349;53.672;10.014;2023-01-23T14:43:38;10.60;;;8.53;;
29362;SDS011;16349;53.672;10.014;2023-01-23T14:46:11;12.17;;;8.70;;
29362;SDS011;16349;53.672;10.014;2023-01-23T14:48:42;13.07;;;9.17;;
29362;SDS011;16349;53.672;10.014;2023-01-23T14:51:15;12.07;;;8.63;;
29362;SDS011;16349;53.672;10.014;2023-01-23T14:53:52;12.77;;;8.97;;
29362;SDS011;16349;53.672;10.014;2023-01-23T14:56:21;12.13;;;8.60;;
29362;SDS011;16349;53.672;10.014;2023-01-23T14:58:53;16.40;;;9.43;;
29362;SDS011;16349;53.672;10.014;2023-01-23T15:01:41;15.13;;;9.00;;
29362;SDS011;16349;53.672;10.014;2023-01-23T15:04:18;14.80;;;9.00;;
29362;SDS011;16349;53.672;10.014;2023-01-23T15:06:49;13.67;;;8.83;;
29362;SDS011;16349;53.672;10.014;2023-01-23T15:09:17;12.63;;;8.67;;
29362;SDS011;16349;53.672;10.014;2023-01-23T15:11:46;15.97;;;9.23;;
29362;SDS011;16349;53.672;10.014;2023-01-23T15:14:21;13.03;;;9.27;;
29362;SDS011;16349;53.672;10.014;2023-01-23T15:16:57;11.73;;;9.37;;
29362;SDS011;16349;53.672;10.014;2023-01-23T15:19:25;14.10;;;8.67;;